createdAt,value
2022-12-23T00:00:46.160Z,98829.23
2022-12-23T00:03:24.459Z,98830.38
2022-12-23T00:05:52.792Z,98829.50
2022-12-23T00:08:21.930Z,98829.41
2022-12-23T00:10:51.085Z,98833.91
2022-12-23T00:13:35.288Z,98841.17
2022-12-23T00:16:08.887Z,98848.71
2022-12-23T00:18:37.205Z,98843.61
2022-12-23T00:21:11.245Z,98846.64
2022-12-23T00:23:41.589Z,98847.77
2022-12-23T00:26:17.540Z,98843.81
2022-12-23T00:28:45.392Z,98850.79
2022-12-23T00:31:13.670Z,98853.39
2022-12-23T00:33:44.196Z,98853.79
2022-12-23T00:36:13.173Z,98856.90
2022-12-23T00:38:55.962Z,98861.39
2022-12-23T00:41:39.732Z,98867.50
2022-12-23T00:44:07.495Z,98870.02
2022-12-23T00:46:35.705Z,98869.60
2022-12-23T00:49:19.541Z,98872.65
2022-12-23T00:51:47.270Z,98866.94
2022-12-23T00:54:15.498Z,98860.55
2022-12-23T00:56:43.234Z,98862.04
2022-12-23T00:59:10.944Z,98866.02
2022-12-23T01:01:54.782Z,98863.64
2022-12-23T01:04:38.672Z,98864.88
2022-12-23T01:07:07.322Z,98861.68
2022-12-23T01:09:35.189Z,98862.84
2022-12-23T01:12:03.265Z,98861.91
2022-12-23T01:14:31.143Z,98862.23
2022-12-23T01:16:59.034Z,98860.84
2022-12-23T01:19:28.135Z,98864.89
2022-12-23T01:21:55.918Z,98866.40
2022-12-23T01:24:30.555Z,98871.23
2022-12-23T01:26:58.782Z,98867.83
2022-12-23T01:29:26.560Z,98871.96
2022-12-23T01:31:54.419Z,98875.21
2022-12-23T01:34:22.355Z,98877.48
2022-12-23T01:36:50.079Z,98882.57
2022-12-23T01:39:17.937Z,98884.02
2022-12-23T01:42:01.595Z,98890.29
2022-12-23T01:44:49.750Z,98890.71
2022-12-23T01:47:39.535Z,98888.83
2022-12-23T01:50:13.006Z,98883.64
2022-12-23T01:52:46.933Z,98893.05
2022-12-23T01:55:16.543Z,98893.14
2022-12-23T01:57:46.223Z,98889.66
2022-12-23T02:00:31.360Z,98888.34
2022-12-23T02:03:15.180Z,98891.60
2022-12-23T02:05:45.836Z,98895.43
2022-12-23T02:08:31.875Z,98894.48
2022-12-23T02:11:18.595Z,98895.64
2022-12-23T02:14:18.466Z,98891.52
2022-12-23T02:16:54.953Z,98895.01
2022-12-23T02:19:38.709Z,98893.37
2022-12-23T02:22:32.881Z,98893.61
2022-12-23T02:25:32.411Z,98893.10
2022-12-23T02:28:32.052Z,98891.58
2022-12-23T02:31:27.197Z,98894.83
2022-12-23T02:34:13.913Z,98896.53
2022-12-23T02:37:13.476Z,98898.20
2022-12-23T02:40:04.359Z,98897.59
2022-12-23T02:42:44.022Z,98899.67
2022-12-23T02:45:18.120Z,98894.86
2022-12-23T02:47:54.484Z,98891.42
2022-12-23T02:50:32.190Z,98893.78
2022-12-23T02:53:25.018Z,98895.48
2022-12-23T02:55:55.973Z,98897.14
2022-12-23T02:58:31.236Z,98901.11
2022-12-23T03:01:00.934Z,98902.96
2022-12-23T03:03:29.345Z,98899.75
2022-12-23T03:05:57.575Z,98895.11
2022-12-23T03:08:43.271Z,98897.24
2022-12-23T03:11:15.233Z,98890.59
2022-12-23T03:13:49.016Z,98892.75
2022-12-23T03:16:24.528Z,98892.91
2022-12-23T03:19:29.720Z,98888.59
2022-12-23T03:22:16.385Z,98892.85
2022-12-23T03:25:02.730Z,98889.83
2022-12-23T03:27:43.093Z,98894.36
2022-12-23T03:30:14.913Z,98903.44
2022-12-23T03:32:48.209Z,98902.34
2022-12-23T03:35:20.139Z,98905.05
2022-12-23T03:37:50.977Z,98904.09
2022-12-23T03:40:34.680Z,98904.63
2022-12-23T03:43:11.325Z,98904.13
2022-12-23T03:45:44.782Z,98915.03
2022-12-23T03:48:19.837Z,98917.87
2022-12-23T03:50:52.283Z,98908.59
2022-12-23T03:53:42.270Z,98907.62
2022-12-23T03:56:16.166Z,98911.44
2022-12-23T03:58:48.182Z,98912.45
2022-12-23T04:01:23.433Z,98906.84
2022-12-23T04:04:15.728Z,98905.45
2022-12-23T04:06:55.682Z,98904.92
2022-12-23T04:09:26.617Z,98906.80
2022-12-23T04:11:54.930Z,98907.73
2022-12-23T04:14:23.012Z,98909.36
2022-12-23T04:16:58.100Z,98903.61
2022-12-23T04:19:25.936Z,98903.36
2022-12-23T04:21:55.949Z,98894.95
2022-12-23T04:24:23.904Z,98890.77
2022-12-23T04:26:51.609Z,98892.86
2022-12-23T04:29:19.415Z,98892.79
2022-12-23T04:31:47.253Z,98890.71
2022-12-23T04:34:15.032Z,98892.70
2022-12-23T04:36:42.765Z,98894.29
2022-12-23T04:39:10.511Z,98898.70
2022-12-23T04:41:38.249Z,98899.73
2022-12-23T04:44:06.314Z,98896.55
2022-12-23T04:46:34.069Z,98897.88
2022-12-23T04:49:01.844Z,98904.24
2022-12-23T04:51:29.653Z,98905.77
2022-12-23T04:53:57.421Z,98911.59
2022-12-23T04:56:25.200Z,98909.45
2022-12-23T04:58:52.916Z,98911.72
2022-12-23T05:01:20.670Z,98906.30
2022-12-23T05:03:48.422Z,98910.80
2022-12-23T05:06:16.121Z,98922.02
2022-12-23T05:08:43.813Z,98919.39
2022-12-23T05:11:11.504Z,98918.61
2022-12-23T05:13:39.268Z,98919.34
2022-12-23T05:16:07.257Z,98918.96
2022-12-23T05:18:35.126Z,98916.19
2022-12-23T05:21:03.119Z,98918.75
2022-12-23T05:23:30.808Z,98908.84
2022-12-23T05:25:58.524Z,98908.23
2022-12-23T05:28:26.276Z,98907.46
2022-12-23T05:30:58.979Z,98898.48
2022-12-23T05:33:27.578Z,98898.08
2022-12-23T05:35:55.633Z,98900.48
2022-12-23T05:38:23.636Z,98908.02
2022-12-23T05:40:51.757Z,98908.67
2022-12-23T05:43:19.574Z,98905.55
2022-12-23T05:45:48.727Z,98905.95
2022-12-23T05:48:17.350Z,98904.03
2022-12-23T05:50:45.059Z,98908.79
2022-12-23T05:53:12.802Z,98917.36
2022-12-23T05:55:40.507Z,98919.59
2022-12-23T05:58:08.284Z,98925.69
2022-12-23T06:00:36.043Z,98934.60
2022-12-23T06:03:03.948Z,98934.59
2022-12-23T06:05:31.884Z,98933.48
2022-12-23T06:07:59.573Z,98935.46
2022-12-23T06:10:27.301Z,98933.05
2022-12-23T06:12:55.366Z,98929.29
2022-12-23T06:15:23.039Z,98930.92
2022-12-23T06:17:50.728Z,98933.17
2022-12-23T06:20:21.005Z,98929.19
2022-12-23T06:22:49.069Z,98932.77
2022-12-23T06:25:16.855Z,98931.65
2022-12-23T06:27:44.642Z,98936.52
2022-12-23T06:30:12.927Z,98939.41
2022-12-23T06:32:40.876Z,98946.15
2022-12-23T06:35:09.582Z,98943.70
2022-12-23T06:37:37.500Z,98940.84
2022-12-23T06:40:06.112Z,98941.13
2022-12-23T06:42:33.799Z,98943.84
2022-12-23T06:45:01.487Z,98943.02
2022-12-23T06:47:29.337Z,98945.60
2022-12-23T06:49:57.021Z,98946.44
2022-12-23T06:52:24.738Z,98945.24
2022-12-23T06:54:52.919Z,98944.81
2022-12-23T06:57:20.658Z,98942.29
2022-12-23T06:59:48.352Z,98944.50
2022-12-23T07:02:16.220Z,98939.08
2022-12-23T07:04:44.081Z,98939.69
2022-12-23T07:07:11.776Z,98939.74
2022-12-23T07:09:39.444Z,98939.38
2022-12-23T07:12:07.157Z,98934.99
2022-12-23T07:14:34.991Z,98936.34
2022-12-23T07:17:02.811Z,98937.91
2022-12-23T07:19:30.543Z,98935.48
2022-12-23T07:21:58.292Z,98930.07
2022-12-23T07:24:25.992Z,98925.20
2022-12-23T07:26:55.845Z,98925.55
2022-12-23T07:29:23.559Z,98931.83
2022-12-23T07:31:51.363Z,98943.69
2022-12-23T07:34:19.193Z,98944.21
2022-12-23T07:36:46.888Z,98947.80
2022-12-23T07:39:14.567Z,98957.48
2022-12-23T07:41:42.239Z,98957.61
2022-12-23T07:44:09.910Z,98962.00
2022-12-23T07:46:38.579Z,98969.70
2022-12-23T07:49:06.387Z,98976.85
2022-12-23T07:51:34.290Z,98972.19
2022-12-23T07:54:02.139Z,98968.44
2022-12-23T07:56:29.940Z,98963.25
2022-12-23T07:58:58.300Z,98957.73
2022-12-23T08:01:26.135Z,98959.42
2022-12-23T08:03:53.922Z,98955.97
2022-12-23T08:06:21.688Z,98956.58
2022-12-23T08:08:49.370Z,98952.11
2022-12-23T08:11:17.735Z,98952.55
2022-12-23T08:13:48.163Z,98953.10
2022-12-23T08:16:15.946Z,98949.69
2022-12-23T08:18:43.721Z,98954.38
2022-12-23T08:21:18.949Z,98955.45
2022-12-23T08:23:48.277Z,98957.83
2022-12-23T08:26:19.650Z,98959.39
2022-12-23T08:28:48.595Z,98959.25
2022-12-23T08:31:18.234Z,98962.11
2022-12-23T08:33:48.868Z,98958.16
2022-12-23T08:36:23.011Z,98956.63
2022-12-23T08:38:56.768Z,98959.85
2022-12-23T08:41:28.311Z,98961.93
2022-12-23T08:43:56.570Z,98968.38
2022-12-23T08:46:24.832Z,98965.39
2022-12-23T08:48:53.594Z,98962.61
2022-12-23T08:51:23.151Z,98959.84
2022-12-23T08:53:59.587Z,98957.91
2022-12-23T08:56:34.933Z,98953.05
2022-12-23T08:59:03.976Z,98949.70
2022-12-23T09:01:34.130Z,98947.16
2022-12-23T09:04:06.462Z,98946.76
2022-12-23T09:06:43.102Z,98941.97
2022-12-23T09:09:12.637Z,98935.87
2022-12-23T09:11:40.386Z,98937.10
2022-12-23T09:14:10.146Z,98934.67
2022-12-23T09:16:38.444Z,98932.10
2022-12-23T09:19:07.610Z,98929.34
2022-12-23T09:21:35.439Z,98930.13
2022-12-23T09:24:03.459Z,98932.66
2022-12-23T09:26:31.637Z,98930.15
2022-12-23T09:28:59.766Z,98931.27
2022-12-23T09:31:34.310Z,98930.56
2022-12-23T09:34:04.886Z,98927.65
2022-12-23T09:36:32.595Z,98924.73
2022-12-23T09:39:00.339Z,98919.96
2022-12-23T09:41:34.071Z,98922.57
2022-12-23T09:44:17.701Z,98919.04
2022-12-23T09:46:51.453Z,98918.73
2022-12-23T09:49:20.211Z,98919.21
2022-12-23T09:51:50.039Z,98919.55
2022-12-23T09:54:29.368Z,98915.88
2022-12-23T09:57:14.035Z,98916.79
2022-12-23T09:59:51.483Z,98918.95
2022-12-23T10:02:35.408Z,98914.41
2022-12-23T10:05:19.177Z,98913.50
2022-12-23T10:07:53.623Z,98915.17
2022-12-23T10:10:52.707Z,98913.67
2022-12-23T10:13:42.588Z,98910.30
2022-12-23T10:16:19.487Z,98905.52
2022-12-23T10:18:53.697Z,98900.16
2022-12-23T10:21:47.814Z,98898.65
2022-12-23T10:24:24.694Z,98899.20
2022-12-23T10:26:55.473Z,98892.27
2022-12-23T10:29:26.458Z,98892.60
2022-12-23T10:32:17.388Z,98888.98
2022-12-23T10:35:04.149Z,98884.13
2022-12-23T10:37:42.585Z,98875.84
2022-12-23T10:40:23.563Z,98873.02
2022-12-23T10:42:57.492Z,98874.09
2022-12-23T10:45:47.454Z,98871.66
2022-12-23T10:48:20.783Z,98869.98
2022-12-23T10:50:54.508Z,98868.80
2022-12-23T10:53:49.695Z,98863.30
2022-12-23T10:56:19.461Z,98853.11
2022-12-23T10:58:52.785Z,98849.35
2022-12-23T11:01:26.605Z,98842.34
2022-12-23T11:04:14.377Z,98842.68
2022-12-23T11:07:11.093Z,98838.07
2022-12-23T11:09:50.650Z,98833.27
2022-12-23T11:12:40.530Z,98831.12
2022-12-23T11:15:27.178Z,98832.04
2022-12-23T11:18:17.806Z,98826.88
2022-12-23T11:21:02.619Z,98830.67
2022-12-23T11:23:33.544Z,98831.54
2022-12-23T11:26:06.145Z,98832.45
2022-12-23T11:28:38.449Z,98827.08
2022-12-23T11:31:11.432Z,98824.20
2022-12-23T11:33:55.796Z,98826.75
2022-12-23T11:36:27.655Z,98828.00
2022-12-23T11:39:14.259Z,98831.64
2022-12-23T11:41:49.610Z,98833.60
2022-12-23T11:44:28.325Z,98835.48
2022-12-23T11:46:56.696Z,98835.11
2022-12-23T11:49:27.915Z,98838.27
2022-12-23T11:52:06.211Z,98835.46
2022-12-23T11:54:34.710Z,98837.67
2022-12-23T11:57:05.964Z,98835.95
2022-12-23T11:59:48.800Z,98841.38
2022-12-23T12:02:21.621Z,98838.25
2022-12-23T12:04:57.921Z,98843.14
2022-12-23T12:07:26.843Z,98843.34
2022-12-23T12:09:59.217Z,98848.95
2022-12-23T12:12:28.557Z,98847.96
2022-12-23T12:14:59.655Z,98848.68
2022-12-23T12:17:40.857Z,98849.70
2022-12-23T12:20:22.750Z,98850.48
2022-12-23T12:22:57.046Z,98853.67
2022-12-23T12:25:51.628Z,98855.02
2022-12-23T12:28:38.339Z,98856.24
2022-12-23T12:31:28.749Z,98858.66
2022-12-23T12:34:05.603Z,98860.74
2022-12-23T12:37:03.329Z,98863.42
2022-12-23T12:39:41.580Z,98862.71
2022-12-23T12:42:21.111Z,98856.14
2022-12-23T12:45:07.758Z,98853.00
2022-12-23T12:47:55.204Z,98857.08
2022-12-23T12:50:31.043Z,98853.50
2022-12-23T12:53:05.894Z,98848.38
2022-12-23T12:55:39.760Z,98847.02
2022-12-23T12:58:15.346Z,98850.60
2022-12-23T13:00:52.108Z,98849.63
2022-12-23T13:03:39.161Z,98850.44
2022-12-23T13:06:22.062Z,98848.46
2022-12-23T13:09:08.663Z,98850.42
2022-12-23T13:11:59.785Z,98855.60
2022-12-23T13:15:03.721Z,98856.83
2022-12-23T13:17:42.555Z,98863.33
2022-12-23T13:20:42.158Z,98864.41
2022-12-23T13:23:42.125Z,98872.55
2022-12-23T13:26:37.752Z,98876.27
2022-12-23T13:29:37.604Z,98869.20
2022-12-23T13:32:19.162Z,98873.06
2022-12-23T13:35:15.718Z,98876.10
2022-12-23T13:38:06.018Z,98872.94
2022-12-23T13:40:39.328Z,98871.32
2022-12-23T13:43:17.841Z,98876.66
2022-12-23T13:45:47.270Z,98875.50
2022-12-23T13:48:43.232Z,98877.52
2022-12-23T13:51:18.666Z,98874.77
2022-12-23T13:54:16.218Z,98875.10
2022-12-23T13:56:49.250Z,98867.55
2022-12-23T13:59:16.999Z,98872.70
2022-12-23T14:01:48.547Z,98879.27
2022-12-23T14:04:33.091Z,98880.98
2022-12-23T14:07:21.059Z,98881.00
2022-12-23T14:09:58.455Z,98876.09
2022-12-23T14:12:28.015Z,98877.40
2022-12-23T14:15:21.733Z,98866.73
2022-12-23T14:18:07.976Z,98866.22
2022-12-23T14:21:07.591Z,98869.86
2022-12-23T14:23:45.320Z,98872.79
2022-12-23T14:26:38.017Z,98864.66
2022-12-23T14:29:14.762Z,98862.65
2022-12-23T14:31:49.790Z,98863.42
2022-12-23T14:34:17.427Z,98865.05
2022-12-23T14:37:18.195Z,98866.58
2022-12-23T14:39:46.584Z,98866.63
2022-12-23T14:42:34.126Z,98861.03
2022-12-23T14:45:33.750Z,98872.40
2022-12-23T14:48:03.848Z,98881.98
2022-12-23T14:50:37.400Z,98882.79
2022-12-23T14:53:21.203Z,98883.83
2022-12-23T14:55:50.571Z,98888.31
2022-12-23T14:58:18.614Z,98892.79
2022-12-23T15:00:49.307Z,98895.03
2022-12-23T15:03:19.292Z,98894.32
2022-12-23T15:05:47.125Z,98899.67
2022-12-23T15:08:40.653Z,98902.81
2022-12-23T15:11:21.539Z,98906.48
2022-12-23T15:13:52.192Z,98909.45
2022-12-23T15:16:26.641Z,98912.09
2022-12-23T15:18:56.198Z,98910.39
2022-12-23T15:21:29.924Z,98905.73
2022-12-23T15:23:57.854Z,98913.34
2022-12-23T15:26:30.442Z,98911.23
2022-12-23T15:29:00.401Z,98912.26
2022-12-23T15:31:35.866Z,98909.34
2022-12-23T15:34:16.751Z,98905.23
2022-12-23T15:36:45.840Z,98907.83
2022-12-23T15:39:21.128Z,98909.55
2022-12-23T15:41:48.896Z,98905.52
2022-12-23T15:44:25.194Z,98899.58
2022-12-23T15:46:53.085Z,98901.16
2022-12-23T15:49:21.883Z,98901.91
2022-12-23T15:52:18.177Z,98900.65
2022-12-23T15:54:53.232Z,98902.15
2022-12-23T15:57:24.337Z,98902.92
2022-12-23T15:59:52.943Z,98900.67
2022-12-23T16:05:41.993Z,98904.25
2022-12-23T16:08:23.188Z,98908.20
2022-12-23T16:11:06.540Z,98909.79
2022-12-23T16:13:34.300Z,98915.45
2022-12-23T16:16:31.157Z,98918.59
2022-12-23T16:18:59.432Z,98922.53
2022-12-23T16:21:35.044Z,98927.16
2022-12-23T16:24:08.431Z,98931.15
2022-12-23T16:26:43.140Z,98931.91
2022-12-23T16:29:11.608Z,98930.50
2022-12-23T16:31:44.233Z,98934.59
2022-12-23T16:34:16.144Z,98933.62
2022-12-23T16:36:43.907Z,98938.80
2022-12-23T16:39:21.995Z,98939.82
2022-12-23T16:41:50.336Z,98941.11
2022-12-23T16:44:18.081Z,98945.29
2022-12-23T16:46:49.463Z,98949.48
2022-12-23T16:49:20.015Z,98946.73
2022-12-23T16:51:48.049Z,98948.57
2022-12-23T16:54:19.231Z,98957.75
2022-12-23T16:56:47.018Z,98954.36
2022-12-23T16:59:14.858Z,98954.06
2022-12-23T17:01:45.842Z,98960.10
2022-12-23T17:04:14.368Z,98961.91
2022-12-23T17:06:42.179Z,98964.98
2022-12-23T17:09:10.352Z,98967.03
2022-12-23T17:11:43.423Z,98963.48
2022-12-23T17:14:18.438Z,98963.95
2022-12-23T17:16:46.846Z,98960.39
2022-12-23T17:19:15.572Z,98958.73
2022-12-23T17:21:45.935Z,98960.29
2022-12-23T17:24:30.034Z,98960.67
2022-12-23T17:26:57.791Z,98962.86
2022-12-23T17:29:25.627Z,98963.13
2022-12-23T17:31:53.516Z,98957.74
2022-12-23T17:34:23.516Z,98955.52
2022-12-23T17:36:51.813Z,98949.25
2022-12-23T17:39:21.483Z,98949.16
2022-12-23T17:41:49.701Z,98951.62
2022-12-23T17:44:18.780Z,98953.39
2022-12-23T17:46:47.072Z,98957.75
2022-12-23T17:49:15.045Z,98947.59
2022-12-23T17:51:43.102Z,98949.55
2022-12-23T17:54:22.937Z,98953.42
2022-12-23T17:56:51.516Z,98960.91
2022-12-23T17:59:19.268Z,98962.34
2022-12-23T18:01:47.239Z,98958.54
2022-12-23T18:04:15.065Z,98962.04
2022-12-23T18:06:42.756Z,98970.70
2022-12-23T18:09:10.434Z,98976.63
2022-12-23T18:11:44.790Z,98976.33
2022-12-23T18:14:17.266Z,98974.20
2022-12-23T18:16:45.204Z,98979.29
2022-12-23T18:19:17.992Z,98980.11
2022-12-23T18:21:46.906Z,98982.42
2022-12-23T18:24:14.842Z,98980.24
2022-12-23T18:26:42.930Z,98983.76
2022-12-23T18:29:10.656Z,98981.08
2022-12-23T18:31:51.068Z,98979.80
2022-12-23T18:34:20.579Z,98972.60
2022-12-23T18:36:48.935Z,98968.98
2022-12-23T18:39:16.756Z,98966.55
2022-12-23T18:41:44.463Z,98970.87
2022-12-23T18:44:19.413Z,98972.05
2022-12-23T18:46:48.358Z,98971.20
2022-12-23T18:49:16.284Z,98976.27
2022-12-23T18:51:44.017Z,98979.43
2022-12-23T18:54:15.965Z,98983.73
2022-12-23T18:56:43.723Z,98986.80
2022-12-23T18:59:17.467Z,98995.06
2022-12-23T19:01:45.826Z,98999.52
2022-12-23T19:04:13.776Z,99001.45
2022-12-23T19:06:41.502Z,99003.90
2022-12-23T19:09:16.809Z,99004.36
2022-12-23T19:11:47.452Z,99007.91
2022-12-23T19:14:15.589Z,99011.96
2022-12-23T19:16:49.283Z,99015.03
2022-12-23T19:19:20.178Z,99018.05
2022-12-23T19:21:48.249Z,99021.34
2022-12-23T19:24:16.072Z,99024.20
2022-12-23T19:26:43.834Z,99024.26
2022-12-23T19:29:11.598Z,99024.84
2022-12-23T19:31:40.101Z,99029.62
2022-12-23T19:34:14.342Z,99029.48
2022-12-23T19:36:43.970Z,99028.16
2022-12-23T19:39:16.065Z,99031.84
2022-12-23T19:41:45.449Z,99028.49
2022-12-23T19:44:14.251Z,99025.63
2022-12-23T19:46:42.124Z,99029.34
2022-12-23T19:49:15.655Z,99028.53
2022-12-23T19:51:45.407Z,99021.81
2022-12-23T19:54:13.116Z,99022.32
2022-12-23T19:56:41.111Z,99024.11
2022-12-23T19:59:08.816Z,99022.08
2022-12-23T20:01:36.644Z,99023.80
2022-12-23T20:04:05.053Z,99028.19
2022-12-23T20:06:35.073Z,99032.02
2022-12-23T20:09:06.320Z,99032.98
2022-12-23T20:11:36.866Z,99034.08
2022-12-23T20:14:05.734Z,99035.73
2022-12-23T20:16:34.394Z,99033.98
2022-12-23T20:19:02.691Z,99032.73
2022-12-23T20:21:30.480Z,99026.02
2022-12-23T20:23:58.199Z,99031.88
2022-12-23T20:26:27.119Z,99028.29
2022-12-23T20:28:56.092Z,99026.84
2022-12-23T20:31:29.873Z,99023.83
2022-12-23T20:33:57.883Z,99011.95
2022-12-23T20:36:28.675Z,99006.38
2022-12-23T20:38:57.155Z,99008.26
2022-12-23T20:41:27.365Z,99010.66
2022-12-23T20:44:33.191Z,99019.70
2022-12-23T20:46:44.030Z,99024.30
2022-12-23T20:49:11.905Z,99030.67
2022-12-23T20:51:39.592Z,99034.94
2022-12-23T20:54:07.317Z,99038.01
2022-12-23T20:56:35.000Z,99041.13
2022-12-23T20:59:03.805Z,99038.83
2022-12-23T21:01:38.265Z,99041.08
2022-12-23T21:04:12.697Z,99040.63
2022-12-23T21:06:40.675Z,99042.24
2022-12-23T21:09:11.635Z,99040.97
2022-12-23T21:11:43.189Z,99043.42
2022-12-23T21:14:12.232Z,99044.53
2022-12-23T21:16:41.197Z,99047.77
2022-12-23T21:19:15.636Z,99048.23
2022-12-23T21:21:43.880Z,99049.48
2022-12-23T21:24:11.811Z,99048.05
2022-12-23T21:26:40.147Z,99051.75
2022-12-23T21:29:10.686Z,99056.66
2022-12-23T21:31:40.867Z,99055.76
2022-12-23T21:34:10.818Z,99051.76
2022-12-23T21:36:38.815Z,99050.83
2022-12-23T21:39:08.225Z,99053.85
2022-12-23T21:41:38.854Z,99062.22
2022-12-23T21:44:07.297Z,99063.80
2022-12-23T21:46:35.473Z,99063.08
2022-12-23T21:49:03.555Z,99069.63
2022-12-23T21:51:39.505Z,99065.50
2022-12-23T21:54:11.412Z,99062.79
2022-12-23T21:56:40.188Z,99065.75
2022-12-23T21:59:12.848Z,99066.38
2022-12-23T22:01:42.025Z,99067.52
2022-12-23T22:04:09.882Z,99060.98
2022-12-23T22:06:41.127Z,99064.38
2022-12-23T22:09:11.462Z,99071.17
2022-12-23T22:11:39.527Z,99075.62
2022-12-23T22:14:10.309Z,99073.71
2022-12-23T22:16:38.245Z,99072.92
2022-12-23T22:19:08.671Z,99066.25
2022-12-23T22:21:36.631Z,99073.13
2022-12-23T22:24:04.674Z,99080.28
2022-12-23T22:26:33.480Z,99082.68
2022-12-23T22:29:04.295Z,99087.56
2022-12-23T22:31:49.321Z,99095.06
2022-12-23T22:34:21.828Z,99100.14
2022-12-23T22:36:50.332Z,99100.95
2022-12-23T22:39:21.839Z,99100.77
2022-12-23T22:41:51.086Z,99099.66
2022-12-23T22:44:19.693Z,99103.11
2022-12-23T22:46:48.259Z,99101.19
2022-12-23T22:49:16.660Z,99098.73
2022-12-23T22:51:45.759Z,99103.03
2022-12-23T22:54:14.080Z,99098.33
2022-12-23T22:56:42.205Z,99094.95
2022-12-23T22:59:19.134Z,99090.48
2022-12-23T23:01:48.435Z,99085.21
2022-12-23T23:04:16.900Z,99088.75
2022-12-23T23:06:44.608Z,99086.73
2022-12-23T23:09:15.082Z,99086.13
2022-12-23T23:11:44.329Z,99085.69
2022-12-23T23:14:12.727Z,99080.23
2022-12-23T23:16:40.744Z,99082.63
2022-12-23T23:19:10.566Z,99082.95
2022-12-23T23:21:38.272Z,99081.64
2022-12-23T23:24:06.398Z,99075.10
2022-12-23T23:26:34.124Z,99076.20
2022-12-23T23:29:01.940Z,99079.05
2022-12-23T23:31:41.882Z,99078.86
2022-12-23T23:34:12.302Z,99083.39
2022-12-23T23:36:40.597Z,99081.46
2022-12-23T23:39:08.714Z,99077.32
2022-12-23T23:41:36.391Z,99077.52
2022-12-23T23:44:04.481Z,99077.76
2022-12-23T23:46:32.919Z,99077.70
2022-12-23T23:49:00.822Z,99078.88
2022-12-23T23:51:28.597Z,99082.42
2022-12-23T23:53:56.361Z,99083.66
2022-12-23T23:56:26.249Z,99083.52
2022-12-23T23:58:55.083Z,99086.20
